This is the latest recevied weather packets stored in our database for station/object RA1AMO-10. If no packets are shown the sender has not sent any weather packets the latest 1 day(s).
| Time | Temp. | Humidity | Pressure | Rain* | Wind** | Luminosity | Snow |
|---|---|---|---|---|---|---|---|
| 1777847586 | 10.56° C | 60% | 1005.9 hPa | - | - | - | - |
| 1777846686 | 10.56° C | 60% | 1005.9 hPa | - | - | - | - |
| 1777845786 | 10.56° C | 59% | 1005.8 hPa | - | - | - | - |
| 1777844886 | 10.56° C | 59% | 1005.8 hPa | - | - | - | - |
| 1777843986 | 10.56° C | 59% | 1005.8 hPa | - | - | - | - |
| 1777843085 | 10° C | 58% | 1005.9 hPa | - | - | - | - |
| 1777842185 | 10.56° C | 59% | 1006 hPa | - | - | - | - |
| 1777841285 | 10° C | 59% | 1006.2 hPa | - | - | - | - |
| 1777840385 | 10° C | 59% | 1006.3 hPa | - | - | - | - |
| 1777839485 | 10.56° C | 57% | 1006.2 hPa | - | - | - | - |
| 1777838585 | 10.56° C | 57% | 1006.3 hPa | - | - | - | - |
| 1777837684 | 10.56° C | 59% | 1006.1 hPa | - | - | - | - |
| 1777836784 | 10° C | 60% | 1006.4 hPa | - | - | - | - |
| 1777835884 | 10.56° C | 60% | 1006.3 hPa | - | - | - | - |
| 1777834984 | 10.56° C | 58% | 1006.4 hPa | - | - | - | - |
| 1777834084 | 11.11° C | 53% | 1006.2 hPa | - | - | - | - |
| 1777833184 | 11.67° C | 51% | 1006 hPa | - | - | - | - |
| 1777832283 | 12.22° C | 52% | 1006.2 hPa | - | - | - | - |
| 1777831383 | 12.22° C | 51% | 1006.2 hPa | - | - | - | - |
| 1777830483 | 13.89° C | 49% | 1006 hPa | - | - | - | - |
| 1777829583 | 13.89° C | 48% | 1006 hPa | - | - | - | - |
* Rain since midnight (hover to see other rain measurements)
** Current wind speed in m/s (hover to see current wind gust speed)